sensor_id;sensor_type;location;lat;lon;timestamp;P1;durP1;ratioP1;P2;durP2;ratioP2
4909;SDS011;2470;49.868;8.660;2023-11-19T00:02:20;3.40;;;3.10;;
4909;SDS011;2470;49.868;8.660;2023-11-19T00:04:46;7.03;;;3.60;;
4909;SDS011;2470;49.868;8.660;2023-11-19T00:07:12;4.60;;;3.67;;
4909;SDS011;2470;49.868;8.660;2023-11-19T00:09:39;4.50;;;3.37;;
4909;SDS011;2470;49.868;8.660;2023-11-19T00:12:04;10.30;;;3.47;;
4909;SDS011;2470;49.868;8.660;2023-11-19T00:14:31;4.37;;;3.30;;
4909;SDS011;2470;49.868;8.660;2023-11-19T00:16:57;4.40;;;3.30;;
4909;SDS011;2470;49.868;8.660;2023-11-19T00:19:23;5.67;;;3.10;;
4909;SDS011;2470;49.868;8.660;2023-11-19T00:21:48;4.53;;;2.83;;
4909;SDS011;2470;49.868;8.660;2023-11-19T00:24:14;2.90;;;2.60;;
4909;SDS011;2470;49.868;8.660;2023-11-19T00:26:41;3.40;;;2.90;;
4909;SDS011;2470;49.868;8.660;2023-11-19T00:29:07;2.60;;;2.30;;
4909;SDS011;2470;49.868;8.660;2023-11-19T00:31:33;2.67;;;2.47;;
4909;SDS011;2470;49.868;8.660;2023-11-19T00:33:59;5.20;;;2.90;;
4909;SDS011;2470;49.868;8.660;2023-11-19T00:36:24;3.27;;;2.90;;
4909;SDS011;2470;49.868;8.660;2023-11-19T00:38:50;2.63;;;2.43;;
4909;SDS011;2470;49.868;8.660;2023-11-19T00:41:23;5.50;;;2.37;;
4909;SDS011;2470;49.868;8.660;2023-11-19T00:43:48;8.93;;;2.70;;
4909;SDS011;2470;49.868;8.660;2023-11-19T00:46:14;2.30;;;2.07;;
4909;SDS011;2470;49.868;8.660;2023-11-19T00:48:40;3.97;;;3.00;;
4909;SDS011;2470;49.868;8.660;2023-11-19T00:51:05;2.80;;;2.53;;
4909;SDS011;2470;49.868;8.660;2023-11-19T00:53:31;2.50;;;2.30;;
4909;SDS011;2470;49.868;8.660;2023-11-19T00:55:58;4.57;;;2.57;;
4909;SDS011;2470;49.868;8.660;2023-11-19T00:58:24;3.63;;;2.83;;
4909;SDS011;2470;49.868;8.660;2023-11-19T01:00:49;2.67;;;2.27;;
4909;SDS011;2470;49.868;8.660;2023-11-19T01:03:15;3.07;;;2.60;;
4909;SDS011;2470;49.868;8.660;2023-11-19T01:05:41;5.30;;;2.63;;
4909;SDS011;2470;49.868;8.660;2023-11-19T01:08:07;5.17;;;2.47;;
4909;SDS011;2470;49.868;8.660;2023-11-19T01:10:33;2.50;;;2.13;;
4909;SDS011;2470;49.868;8.660;2023-11-19T01:12:59;3.90;;;2.70;;
4909;SDS011;2470;49.868;8.660;2023-11-19T01:15:24;3.83;;;2.67;;
4909;SDS011;2470;49.868;8.660;2023-11-19T01:17:50;3.40;;;2.60;;
4909;SDS011;2470;49.868;8.660;2023-11-19T01:20:15;2.27;;;2.07;;
4909;SDS011;2470;49.868;8.660;2023-11-19T01:22:42;2.87;;;2.37;;
4909;SDS011;2470;49.868;8.660;2023-11-19T01:25:08;3.87;;;2.40;;
4909;SDS011;2470;49.868;8.660;2023-11-19T01:27:33;5.63;;;2.50;;
4909;SDS011;2470;49.868;8.660;2023-11-19T01:30:00;1.90;;;1.80;;
4909;SDS011;2470;49.868;8.660;2023-11-19T01:32:28;2.50;;;2.00;;
4909;SDS011;2470;49.868;8.660;2023-11-19T01:34:53;4.30;;;1.83;;
4909;SDS011;2470;49.868;8.660;2023-11-19T01:37:19;1.70;;;1.60;;
4909;SDS011;2470;49.868;8.660;2023-11-19T01:39:44;1.60;;;1.50;;
4909;SDS011;2470;49.868;8.660;2023-11-19T01:42:10;1.67;;;1.57;;
4909;SDS011;2470;49.868;8.660;2023-11-19T01:44:37;1.60;;;1.50;;
4909;SDS011;2470;49.868;8.660;2023-11-19T01:47:03;2.30;;;1.80;;
4909;SDS011;2470;49.868;8.660;2023-11-19T01:49:29;2.03;;;1.83;;
4909;SDS011;2470;49.868;8.660;2023-11-19T01:51:57;2.40;;;1.57;;
4909;SDS011;2470;49.868;8.660;2023-11-19T01:54:22;1.73;;;1.63;;
4909;SDS011;2470;49.868;8.660;2023-11-19T01:56:48;2.27;;;1.53;;
4909;SDS011;2470;49.868;8.660;2023-11-19T01:59:14;1.50;;;1.40;;
4909;SDS011;2470;49.868;8.660;2023-11-19T02:01:40;1.57;;;1.47;;
4909;SDS011;2470;49.868;8.660;2023-11-19T02:04:07;5.83;;;1.77;;
4909;SDS011;2470;49.868;8.660;2023-11-19T02:06:34;1.53;;;1.43;;
4909;SDS011;2470;49.868;8.660;2023-11-19T02:09:02;1.50;;;1.40;;
4909;SDS011;2470;49.868;8.660;2023-11-19T02:11:32;1.57;;;1.30;;
4909;SDS011;2470;49.868;8.660;2023-11-19T02:13:59;1.50;;;1.37;;
4909;SDS011;2470;49.868;8.660;2023-11-19T02:16:25;2.10;;;1.60;;
4909;SDS011;2470;49.868;8.660;2023-11-19T02:18:50;1.93;;;1.30;;
4909;SDS011;2470;49.868;8.660;2023-11-19T02:21:15;1.97;;;1.50;;
4909;SDS011;2470;49.868;8.660;2023-11-19T02:23:42;1.67;;;1.20;;
4909;SDS011;2470;49.868;8.660;2023-11-19T02:28:48;7.33;;;1.30;;
4909;SDS011;2470;49.868;8.660;2023-11-19T02:31:13;1.30;;;1.20;;
4909;SDS011;2470;49.868;8.660;2023-11-19T02:33:39;1.43;;;1.33;;
4909;SDS011;2470;49.868;8.660;2023-11-19T02:36:05;1.73;;;1.63;;
4909;SDS011;2470;49.868;8.660;2023-11-19T02:38:32;1.50;;;1.40;;
4909;SDS011;2470;49.868;8.660;2023-11-19T02:40:59;1.97;;;1.33;;
4909;SDS011;2470;49.868;8.660;2023-11-19T02:43:30;1.30;;;1.20;;
4909;SDS011;2470;49.868;8.660;2023-11-19T02:45:56;1.43;;;1.33;;
4909;SDS011;2470;49.868;8.660;2023-11-19T02:48:22;1.30;;;1.20;;
4909;SDS011;2470;49.868;8.660;2023-11-19T02:50:48;1.80;;;1.47;;
4909;SDS011;2470;49.868;8.660;2023-11-19T02:53:13;1.27;;;1.07;;
4909;SDS011;2470;49.868;8.660;2023-11-19T02:55:39;1.47;;;1.37;;
4909;SDS011;2470;49.868;8.660;2023-11-19T02:58:06;0.93;;;0.93;;
4909;SDS011;2470;49.868;8.660;2023-11-19T03:00:34;1.27;;;1.17;;
4909;SDS011;2470;49.868;8.660;2023-11-19T03:03:12;1.30;;;1.20;;
4909;SDS011;2470;49.868;8.660;2023-11-19T03:05:48;2.37;;;1.50;;
4909;SDS011;2470;49.868;8.660;2023-11-19T03:08:14;1.63;;;1.53;;
4909;SDS011;2470;49.868;8.660;2023-11-19T03:10:41;1.60;;;1.50;;
4909;SDS011;2470;49.868;8.660;2023-11-19T03:13:07;1.93;;;1.47;;
4909;SDS011;2470;49.868;8.660;2023-11-19T03:15:39;1.70;;;1.53;;
4909;SDS011;2470;49.868;8.660;2023-11-19T03:18:04;1.60;;;1.50;;
4909;SDS011;2470;49.868;8.660;2023-11-19T03:20:30;1.50;;;1.30;;
4909;SDS011;2470;49.868;8.660;2023-11-19T03:22:55;1.23;;;1.17;;
4909;SDS011;2470;49.868;8.660;2023-11-19T03:25:24;1.80;;;1.57;;
4909;SDS011;2470;49.868;8.660;2023-11-19T03:27:51;1.90;;;1.43;;
4909;SDS011;2470;49.868;8.660;2023-11-19T03:30:18;1.17;;;1.17;;
4909;SDS011;2470;49.868;8.660;2023-11-19T03:32:43;1.30;;;1.20;;
4909;SDS011;2470;49.868;8.660;2023-11-19T03:35:09;1.57;;;1.40;;
4909;SDS011;2470;49.868;8.660;2023-11-19T03:37:36;1.90;;;1.70;;
4909;SDS011;2470;49.868;8.660;2023-11-19T03:40:02;1.47;;;1.37;;
4909;SDS011;2470;49.868;8.660;2023-11-19T03:42:28;4.60;;;1.53;;
4909;SDS011;2470;49.868;8.660;2023-11-19T03:44:57;2.57;;;1.70;;
4909;SDS011;2470;49.868;8.660;2023-11-19T03:47:23;2.20;;;1.83;;
4909;SDS011;2470;49.868;8.660;2023-11-19T03:49:51;1.83;;;1.73;;
4909;SDS011;2470;49.868;8.660;2023-11-19T03:52:17;3.80;;;1.77;;
4909;SDS011;2470;49.868;8.660;2023-11-19T03:54:43;1.93;;;1.77;;
4909;SDS011;2470;49.868;8.660;2023-11-19T03:57:10;2.17;;;1.90;;
4909;SDS011;2470;49.868;8.660;2023-11-19T03:59:37;2.10;;;1.90;;
4909;SDS011;2470;49.868;8.660;2023-11-19T04:02:02;1.60;;;1.50;;
4909;SDS011;2470;49.868;8.660;2023-11-19T04:04:28;1.50;;;1.40;;
4909;SDS011;2470;49.868;8.660;2023-11-19T04:06:57;1.80;;;1.70;;
4909;SDS011;2470;49.868;8.660;2023-11-19T04:09:23;3.13;;;2.00;;
4909;SDS011;2470;49.868;8.660;2023-11-19T04:11:48;2.90;;;2.20;;
4909;SDS011;2470;49.868;8.660;2023-11-19T04:14:14;2.00;;;1.80;;
4909;SDS011;2470;49.868;8.660;2023-11-19T04:16:40;1.70;;;1.60;;
4909;SDS011;2470;49.868;8.660;2023-11-19T04:19:06;1.97;;;1.77;;
4909;SDS011;2470;49.868;8.660;2023-11-19T04:21:31;1.50;;;1.40;;
4909;SDS011;2470;49.868;8.660;2023-11-19T04:23:57;1.60;;;1.50;;
4909;SDS011;2470;49.868;8.660;2023-11-19T04:26:23;1.70;;;1.60;;
4909;SDS011;2470;49.868;8.660;2023-11-19T04:28:49;1.60;;;1.50;;
4909;SDS011;2470;49.868;8.660;2023-11-19T04:31:15;1.67;;;1.57;;
4909;SDS011;2470;49.868;8.660;2023-11-19T04:33:41;3.07;;;1.67;;
4909;SDS011;2470;49.868;8.660;2023-11-19T04:36:07;1.83;;;1.67;;
4909;SDS011;2470;49.868;8.660;2023-11-19T04:38:33;1.80;;;1.70;;
4909;SDS011;2470;49.868;8.660;2023-11-19T04:40:59;2.00;;;1.70;;
4909;SDS011;2470;49.868;8.660;2023-11-19T04:43:25;2.37;;;1.97;;
4909;SDS011;2470;49.868;8.660;2023-11-19T04:45:51;2.10;;;1.93;;
4909;SDS011;2470;49.868;8.660;2023-11-19T04:48:16;1.87;;;1.77;;
4909;SDS011;2470;49.868;8.660;2023-11-19T04:50:42;3.23;;;2.23;;
4909;SDS011;2470;49.868;8.660;2023-11-19T04:53:07;3.70;;;2.40;;
4909;SDS011;2470;49.868;8.660;2023-11-19T04:55:33;2.40;;;2.20;;
4909;SDS011;2470;49.868;8.660;2023-11-19T04:57:58;2.90;;;2.50;;
4909;SDS011;2470;49.868;8.660;2023-11-19T05:00:24;5.53;;;2.10;;
4909;SDS011;2470;49.868;8.660;2023-11-19T05:02:49;3.00;;;2.57;;
4909;SDS011;2470;49.868;8.660;2023-11-19T05:05:16;5.03;;;2.90;;
4909;SDS011;2470;49.868;8.660;2023-11-19T05:07:42;11.60;;;2.90;;
4909;SDS011;2470;49.868;8.660;2023-11-19T05:10:08;2.20;;;1.90;;
4909;SDS011;2470;49.868;8.660;2023-11-19T05:12:33;3.80;;;3.20;;
4909;SDS011;2470;49.868;8.660;2023-11-19T05:14:59;2.37;;;2.13;;
4909;SDS011;2470;49.868;8.660;2023-11-19T05:17:25;3.17;;;2.20;;
4909;SDS011;2470;49.868;8.660;2023-11-19T05:19:51;3.27;;;2.97;;
4909;SDS011;2470;49.868;8.660;2023-11-19T05:22:16;3.00;;;2.70;;
4909;SDS011;2470;49.868;8.660;2023-11-19T05:24:42;3.03;;;2.70;;
4909;SDS011;2470;49.868;8.660;2023-11-19T05:27:08;3.20;;;2.67;;
4909;SDS011;2470;49.868;8.660;2023-11-19T05:29:36;5.10;;;2.63;;
4909;SDS011;2470;49.868;8.660;2023-11-19T05:32:04;3.67;;;3.00;;
4909;SDS011;2470;49.868;8.660;2023-11-19T05:34:30;4.17;;;2.70;;
4909;SDS011;2470;49.868;8.660;2023-11-19T05:36:55;3.40;;;2.97;;
4909;SDS011;2470;49.868;8.660;2023-11-19T05:39:22;3.00;;;2.70;;
4909;SDS011;2470;49.868;8.660;2023-11-19T05:41:47;3.47;;;3.17;;
4909;SDS011;2470;49.868;8.660;2023-11-19T05:44:13;3.60;;;3.27;;
4909;SDS011;2470;49.868;8.660;2023-11-19T05:46:38;4.17;;;3.17;;
4909;SDS011;2470;49.868;8.660;2023-11-19T05:49:07;2.93;;;2.70;;
4909;SDS011;2470;49.868;8.660;2023-11-19T05:51:36;3.03;;;2.73;;
4909;SDS011;2470;49.868;8.660;2023-11-19T05:54:06;4.00;;;2.43;;
4909;SDS011;2470;49.868;8.660;2023-11-19T05:56:32;2.70;;;2.50;;
4909;SDS011;2470;49.868;8.660;2023-11-19T05:58:58;2.47;;;2.27;;
4909;SDS011;2470;49.868;8.660;2023-11-19T06:01:29;2.70;;;2.50;;
4909;SDS011;2470;49.868;8.660;2023-11-19T06:03:57;2.80;;;2.40;;
4909;SDS011;2470;49.868;8.660;2023-11-19T06:06:22;4.90;;;2.67;;
4909;SDS011;2470;49.868;8.660;2023-11-19T06:08:49;3.20;;;2.50;;
4909;SDS011;2470;49.868;8.660;2023-11-19T06:11:15;4.00;;;2.53;;
4909;SDS011;2470;49.868;8.660;2023-11-19T06:13:44;4.27;;;2.30;;
4909;SDS011;2470;49.868;8.660;2023-11-19T06:16:09;4.10;;;3.20;;
4909;SDS011;2470;49.868;8.660;2023-11-19T06:18:38;3.83;;;2.50;;
4909;SDS011;2470;49.868;8.660;2023-11-19T06:21:03;3.60;;;2.80;;
4909;SDS011;2470;49.868;8.660;2023-11-19T06:23:29;2.90;;;2.50;;
4909;SDS011;2470;49.868;8.660;2023-11-19T06:25:55;4.03;;;2.80;;
4909;SDS011;2470;49.868;8.660;2023-11-19T06:28:20;3.63;;;2.20;;
4909;SDS011;2470;49.868;8.660;2023-11-19T06:30:46;2.70;;;2.50;;
4909;SDS011;2470;49.868;8.660;2023-11-19T06:33:14;3.87;;;2.80;;
4909;SDS011;2470;49.868;8.660;2023-11-19T06:35:39;2.87;;;2.60;;
4909;SDS011;2470;49.868;8.660;2023-11-19T06:38:05;3.50;;;3.03;;
4909;SDS011;2470;49.868;8.660;2023-11-19T06:40:31;4.50;;;3.07;;
4909;SDS011;2470;49.868;8.660;2023-11-19T06:43:00;4.43;;;3.40;;
4909;SDS011;2470;49.868;8.660;2023-11-19T06:45:27;3.97;;;3.47;;
4909;SDS011;2470;49.868;8.660;2023-11-19T06:47:53;3.13;;;2.50;;
4909;SDS011;2470;49.868;8.660;2023-11-19T06:50:18;6.70;;;3.60;;
4909;SDS011;2470;49.868;8.660;2023-11-19T06:52:44;3.00;;;2.47;;
4909;SDS011;2470;49.868;8.660;2023-11-19T06:55:10;3.13;;;2.83;;
4909;SDS011;2470;49.868;8.660;2023-11-19T06:57:36;2.83;;;2.47;;
4909;SDS011;2470;49.868;8.660;2023-11-19T07:00:01;5.23;;;3.20;;
4909;SDS011;2470;49.868;8.660;2023-11-19T07:02:27;3.73;;;2.80;;
4909;SDS011;2470;49.868;8.660;2023-11-19T07:04:53;2.97;;;2.70;;
4909;SDS011;2470;49.868;8.660;2023-11-19T07:07:19;4.97;;;3.00;;
4909;SDS011;2470;49.868;8.660;2023-11-19T07:09:45;5.30;;;3.20;;
4909;SDS011;2470;49.868;8.660;2023-11-19T07:12:10;4.00;;;3.03;;
4909;SDS011;2470;49.868;8.660;2023-11-19T07:14:38;5.17;;;3.57;;
4909;SDS011;2470;49.868;8.660;2023-11-19T07:17:03;3.40;;;2.97;;
4909;SDS011;2470;49.868;8.660;2023-11-19T07:19:29;6.30;;;3.70;;
4909;SDS011;2470;49.868;8.660;2023-11-19T07:21:54;5.10;;;3.50;;
4909;SDS011;2470;49.868;8.660;2023-11-19T07:24:21;6.50;;;3.33;;
4909;SDS011;2470;49.868;8.660;2023-11-19T07:26:47;2.50;;;2.30;;
4909;SDS011;2470;49.868;8.660;2023-11-19T07:29:13;4.73;;;3.50;;
4909;SDS011;2470;49.868;8.660;2023-11-19T07:31:41;3.17;;;2.67;;
4909;SDS011;2470;49.868;8.660;2023-11-19T07:34:09;4.20;;;2.67;;
4909;SDS011;2470;49.868;8.660;2023-11-19T07:36:35;4.33;;;2.53;;
4909;SDS011;2470;49.868;8.660;2023-11-19T07:39:01;7.00;;;2.53;;
4909;SDS011;2470;49.868;8.660;2023-11-19T07:41:27;2.70;;;2.37;;
4909;SDS011;2470;49.868;8.660;2023-11-19T07:43:53;6.70;;;2.20;;
4909;SDS011;2470;49.868;8.660;2023-11-19T07:46:19;10.20;;;5.17;;
4909;SDS011;2470;49.868;8.660;2023-11-19T07:48:45;3.67;;;2.40;;
4909;SDS011;2470;49.868;8.660;2023-11-19T07:51:12;7.60;;;2.07;;
4909;SDS011;2470;49.868;8.660;2023-11-19T07:53:38;6.17;;;2.60;;
4909;SDS011;2470;49.868;8.660;2023-11-19T07:56:04;2.10;;;1.90;;
4909;SDS011;2470;49.868;8.660;2023-11-19T07:58:30;10.23;;;2.10;;
4909;SDS011;2470;49.868;8.660;2023-11-19T08:00:56;2.20;;;1.90;;
4909;SDS011;2470;49.868;8.660;2023-11-19T08:03:21;2.60;;;2.30;;
4909;SDS011;2470;49.868;8.660;2023-11-19T08:05:47;3.17;;;2.37;;
4909;SDS011;2470;49.868;8.660;2023-11-19T08:08:13;6.80;;;2.77;;
4909;SDS011;2470;49.868;8.660;2023-11-19T08:10:38;8.53;;;2.70;;
4909;SDS011;2470;49.868;8.660;2023-11-19T08:13:05;3.80;;;2.30;;
4909;SDS011;2470;49.868;8.660;2023-11-19T08:15:31;3.70;;;2.60;;
4909;SDS011;2470;49.868;8.660;2023-11-19T08:17:57;3.43;;;2.30;;
4909;SDS011;2470;49.868;8.660;2023-11-19T08:20:22;3.27;;;2.80;;
4909;SDS011;2470;49.868;8.660;2023-11-19T08:22:48;2.80;;;2.17;;
4909;SDS011;2470;49.868;8.660;2023-11-19T08:25:14;2.27;;;2.00;;
4909;SDS011;2470;49.868;8.660;2023-11-19T08:27:40;3.30;;;2.20;;
4909;SDS011;2470;49.868;8.660;2023-11-19T08:30:05;2.50;;;2.17;;
4909;SDS011;2470;49.868;8.660;2023-11-19T08:32:32;2.00;;;1.90;;
4909;SDS011;2470;49.868;8.660;2023-11-19T08:34:57;2.13;;;1.93;;
4909;SDS011;2470;49.868;8.660;2023-11-19T08:37:23;2.50;;;2.30;;
4909;SDS011;2470;49.868;8.660;2023-11-19T08:39:49;2.23;;;2.00;;
4909;SDS011;2470;49.868;8.660;2023-11-19T08:42:21;6.63;;;2.10;;
4909;SDS011;2470;49.868;8.660;2023-11-19T08:44:50;4.20;;;2.27;;
4909;SDS011;2470;49.868;8.660;2023-11-19T08:47:15;10.20;;;2.53;;
4909;SDS011;2470;49.868;8.660;2023-11-19T08:49:43;4.57;;;2.17;;
4909;SDS011;2470;49.868;8.660;2023-11-19T08:52:09;2.27;;;2.07;;
4909;SDS011;2470;49.868;8.660;2023-11-19T08:54:35;5.40;;;2.20;;
4909;SDS011;2470;49.868;8.660;2023-11-19T08:57:01;7.40;;;2.17;;
4909;SDS011;2470;49.868;8.660;2023-11-19T08:59:28;9.90;;;2.90;;
4909;SDS011;2470;49.868;8.660;2023-11-19T09:01:54;4.90;;;2.77;;
4909;SDS011;2470;49.868;8.660;2023-11-19T09:04:19;5.13;;;2.23;;
4909;SDS011;2470;49.868;8.660;2023-11-19T09:06:47;2.43;;;2.13;;
4909;SDS011;2470;49.868;8.660;2023-11-19T09:09:13;2.40;;;2.20;;
4909;SDS011;2470;49.868;8.660;2023-11-19T09:11:39;2.20;;;1.80;;
4909;SDS011;2470;49.868;8.660;2023-11-19T09:14:04;2.37;;;1.90;;
4909;SDS011;2470;49.868;8.660;2023-11-19T09:16:30;3.10;;;2.40;;
4909;SDS011;2470;49.868;8.660;2023-11-19T09:18:55;5.93;;;3.00;;
4909;SDS011;2470;49.868;8.660;2023-11-19T09:21:21;2.80;;;1.80;;
4909;SDS011;2470;49.868;8.660;2023-11-19T09:23:47;1.77;;;1.50;;
4909;SDS011;2470;49.868;8.660;2023-11-19T09:26:14;3.07;;;2.30;;
4909;SDS011;2470;49.868;8.660;2023-11-19T09:28:39;2.00;;;1.73;;
4909;SDS011;2470;49.868;8.660;2023-11-19T09:31:14;3.93;;;1.80;;
4909;SDS011;2470;49.868;8.660;2023-11-19T09:33:43;2.20;;;1.50;;
4909;SDS011;2470;49.868;8.660;2023-11-19T09:36:09;3.87;;;1.90;;
4909;SDS011;2470;49.868;8.660;2023-11-19T09:38:38;1.33;;;1.23;;
4909;SDS011;2470;49.868;8.660;2023-11-19T09:41:04;4.67;;;1.60;;
4909;SDS011;2470;49.868;8.660;2023-11-19T09:43:34;3.33;;;1.80;;
4909;SDS011;2470;49.868;8.660;2023-11-19T09:46:02;3.00;;;2.03;;
4909;SDS011;2470;49.868;8.660;2023-11-19T09:48:35;1.50;;;1.40;;
4909;SDS011;2470;49.868;8.660;2023-11-19T09:51:05;1.33;;;1.23;;
4909;SDS011;2470;49.868;8.660;2023-11-19T09:53:31;6.30;;;1.70;;
4909;SDS011;2470;49.868;8.660;2023-11-19T09:55:59;1.80;;;1.53;;
4909;SDS011;2470;49.868;8.660;2023-11-19T09:58:27;2.03;;;1.83;;
4909;SDS011;2470;49.868;8.660;2023-11-19T10:00:54;4.23;;;1.80;;
4909;SDS011;2470;49.868;8.660;2023-11-19T10:03:19;2.03;;;1.80;;
4909;SDS011;2470;49.868;8.660;2023-11-19T10:05:47;2.20;;;1.90;;
4909;SDS011;2470;49.868;8.660;2023-11-19T10:08:12;3.03;;;2.03;;
4909;SDS011;2470;49.868;8.660;2023-11-19T10:10:39;2.20;;;1.57;;
4909;SDS011;2470;49.868;8.660;2023-11-19T10:13:04;2.37;;;1.80;;
4909;SDS011;2470;49.868;8.660;2023-11-19T10:15:33;4.73;;;1.90;;
4909;SDS011;2470;49.868;8.660;2023-11-19T10:18:01;3.23;;;1.70;;
4909;SDS011;2470;49.868;8.660;2023-11-19T10:20:27;2.80;;;2.10;;
4909;SDS011;2470;49.868;8.660;2023-11-19T10:22:53;3.03;;;1.90;;
4909;SDS011;2470;49.868;8.660;2023-11-19T10:25:22;5.33;;;2.00;;
4909;SDS011;2470;49.868;8.660;2023-11-19T10:27:49;4.50;;;1.70;;
4909;SDS011;2470;49.868;8.660;2023-11-19T10:30:25;2.73;;;2.00;;
4909;SDS011;2470;49.868;8.660;2023-11-19T10:33:03;1.80;;;1.70;;
4909;SDS011;2470;49.868;8.660;2023-11-19T10:35:56;1.97;;;1.60;;
4909;SDS011;2470;49.868;8.660;2023-11-19T10:38:22;4.10;;;1.83;;
4909;SDS011;2470;49.868;8.660;2023-11-19T10:40:49;1.93;;;1.60;;
4909;SDS011;2470;49.868;8.660;2023-11-19T10:43:21;7.17;;;2.00;;
4909;SDS011;2470;49.868;8.660;2023-11-19T10:45:48;3.33;;;1.90;;
4909;SDS011;2470;49.868;8.660;2023-11-19T10:48:14;2.63;;;1.70;;
4909;SDS011;2470;49.868;8.660;2023-11-19T10:50:41;8.00;;;2.20;;
4909;SDS011;2470;49.868;8.660;2023-11-19T10:53:08;5.63;;;1.90;;
4909;SDS011;2470;49.868;8.660;2023-11-19T10:55:44;10.90;;;2.83;;
4909;SDS011;2470;49.868;8.660;2023-11-19T10:58:12;12.50;;;2.30;;
4909;SDS011;2470;49.868;8.660;2023-11-19T11:00:44;5.53;;;2.50;;
4909;SDS011;2470;49.868;8.660;2023-11-19T11:03:16;2.87;;;1.90;;
4909;SDS011;2470;49.868;8.660;2023-11-19T11:05:46;4.83;;;2.23;;
4909;SDS011;2470;49.868;8.660;2023-11-19T11:08:13;2.80;;;1.70;;
4909;SDS011;2470;49.868;8.660;2023-11-19T11:10:39;7.20;;;1.90;;
4909;SDS011;2470;49.868;8.660;2023-11-19T11:13:09;1.97;;;1.70;;
4909;SDS011;2470;49.868;8.660;2023-11-19T11:15:35;2.33;;;1.70;;
4909;SDS011;2470;49.868;8.660;2023-11-19T11:18:02;4.30;;;1.60;;
4909;SDS011;2470;49.868;8.660;2023-11-19T11:20:29;2.97;;;1.30;;
4909;SDS011;2470;49.868;8.660;2023-11-19T11:23:16;3.17;;;1.43;;
4909;SDS011;2470;49.868;8.660;2023-11-19T11:28:47;5.60;;;1.33;;
4909;SDS011;2470;49.868;8.660;2023-11-19T11:39:23;3.28;;;1.67;;
4909;SDS011;2470;49.868;8.660;2023-11-19T11:50:08;2.17;;;1.40;;
4909;SDS011;2470;49.868;8.660;2023-11-19T11:55:25;6.18;;;1.58;;
4909;SDS011;2470;49.868;8.660;2023-11-19T11:57:58;6.20;;;1.90;;
4909;SDS011;2470;49.868;8.660;2023-11-19T12:00:31;3.15;;;1.70;;
4909;SDS011;2470;49.868;8.660;2023-11-19T12:02:57;3.47;;;1.52;;
4909;SDS011;2470;49.868;8.660;2023-11-19T12:05:25;4.18;;;1.17;;
4909;SDS011;2470;49.868;8.660;2023-11-19T12:08:10;4.15;;;1.30;;
4909;SDS011;2470;49.868;8.660;2023-11-19T12:10:38;3.05;;;1.30;;
4909;SDS011;2470;49.868;8.660;2023-11-19T12:13:10;8.20;;;2.65;;
4909;SDS011;2470;49.868;8.660;2023-11-19T12:18:22;12.73;;;1.48;;
4909;SDS011;2470;49.868;8.660;2023-11-19T12:20:51;1.60;;;1.25;;
4909;SDS011;2470;49.868;8.660;2023-11-19T12:23:17;2.95;;;1.30;;
4909;SDS011;2470;49.868;8.660;2023-11-19T12:25:42;2.53;;;0.98;;
4909;SDS011;2470;49.868;8.660;2023-11-19T12:28:13;5.90;;;1.63;;
4909;SDS011;2470;49.868;8.660;2023-11-19T12:30:39;2.15;;;1.17;;
4909;SDS011;2470;49.868;8.660;2023-11-19T12:33:08;2.65;;;1.55;;
4909;SDS011;2470;49.868;8.660;2023-11-19T12:35:44;2.90;;;1.20;;
4909;SDS011;2470;49.868;8.660;2023-11-19T12:38:19;2.83;;;1.20;;
4909;SDS011;2470;49.868;8.660;2023-11-19T12:40:46;7.95;;;1.40;;
4909;SDS011;2470;49.868;8.660;2023-11-19T12:43:20;2.22;;;1.15;;
4909;SDS011;2470;49.868;8.660;2023-11-19T12:45:49;4.50;;;1.35;;
4909;SDS011;2470;49.868;8.660;2023-11-19T12:48:15;4.22;;;1.25;;
4909;SDS011;2470;49.868;8.660;2023-11-19T12:53:47;7.70;;;1.45;;
4909;SDS011;2470;49.868;8.660;2023-11-19T12:56:15;6.22;;;1.50;;
4909;SDS011;2470;49.868;8.660;2023-11-19T12:58:40;7.78;;;1.42;;
4909;SDS011;2470;49.868;8.660;2023-11-19T13:01:08;2.40;;;1.10;;
4909;SDS011;2470;49.868;8.660;2023-11-19T13:03:37;3.15;;;1.40;;
4909;SDS011;2470;49.868;8.660;2023-11-19T13:06:10;5.53;;;1.35;;
4909;SDS011;2470;49.868;8.660;2023-11-19T13:08:40;4.45;;;1.20;;
4909;SDS011;2470;49.868;8.660;2023-11-19T13:11:07;6.57;;;1.88;;
4909;SDS011;2470;49.868;8.660;2023-11-19T13:13:53;5.47;;;1.35;;
4909;SDS011;2470;49.868;8.660;2023-11-19T13:16:25;4.30;;;1.40;;
4909;SDS011;2470;49.868;8.660;2023-11-19T13:18:52;2.75;;;1.33;;
4909;SDS011;2470;49.868;8.660;2023-11-19T13:21:18;8.80;;;1.77;;
4909;SDS011;2470;49.868;8.660;2023-11-19T13:23:44;3.88;;;1.23;;
4909;SDS011;2470;49.868;8.660;2023-11-19T13:26:09;10.93;;;1.45;;
4909;SDS011;2470;49.868;8.660;2023-11-19T13:28:36;11.27;;;1.52;;
4909;SDS011;2470;49.868;8.660;2023-11-19T13:31:01;2.30;;;1.27;;
4909;SDS011;2470;49.868;8.660;2023-11-19T13:33:27;6.38;;;1.40;;
4909;SDS011;2470;49.868;8.660;2023-11-19T13:35:54;8.30;;;2.20;;
4909;SDS011;2470;49.868;8.660;2023-11-19T13:38:20;11.35;;;2.05;;
4909;SDS011;2470;49.868;8.660;2023-11-19T13:40:45;3.28;;;1.55;;
4909;SDS011;2470;49.868;8.660;2023-11-19T13:43:11;2.90;;;1.40;;
4909;SDS011;2470;49.868;8.660;2023-11-19T13:45:36;2.33;;;1.05;;
4909;SDS011;2470;49.868;8.660;2023-11-19T13:48:02;5.05;;;1.77;;
4909;SDS011;2470;49.868;8.660;2023-11-19T13:50:28;2.63;;;1.30;;
4909;SDS011;2470;49.868;8.660;2023-11-19T13:52:54;10.60;;;1.73;;
4909;SDS011;2470;49.868;8.660;2023-11-19T13:55:19;5.03;;;1.83;;
4909;SDS011;2470;49.868;8.660;2023-11-19T13:57:45;7.63;;;1.70;;
4909;SDS011;2470;49.868;8.660;2023-11-19T14:00:11;9.07;;;1.58;;
4909;SDS011;2470;49.868;8.660;2023-11-19T14:02:38;6.22;;;1.60;;
4909;SDS011;2470;49.868;8.660;2023-11-19T14:05:05;6.47;;;1.30;;
4909;SDS011;2470;49.868;8.660;2023-11-19T14:07:31;3.72;;;1.45;;
4909;SDS011;2470;49.868;8.660;2023-11-19T14:09:57;4.28;;;1.70;;
4909;SDS011;2470;49.868;8.660;2023-11-19T14:12:23;12.18;;;2.03;;
4909;SDS011;2470;49.868;8.660;2023-11-19T14:14:48;29.27;;;2.78;;
4909;SDS011;2470;49.868;8.660;2023-11-19T14:17:14;7.70;;;2.13;;
4909;SDS011;2470;49.868;8.660;2023-11-19T14:19:40;10.63;;;2.17;;
4909;SDS011;2470;49.868;8.660;2023-11-19T14:22:07;3.97;;;2.25;;
4909;SDS011;2470;49.868;8.660;2023-11-19T14:24:33;3.65;;;1.67;;
4909;SDS011;2470;49.868;8.660;2023-11-19T14:26:59;4.20;;;2.13;;
4909;SDS011;2470;49.868;8.660;2023-11-19T14:29:25;3.65;;;1.63;;
4909;SDS011;2470;49.868;8.660;2023-11-19T14:31:52;4.30;;;1.73;;
4909;SDS011;2470;49.868;8.660;2023-11-19T14:34:19;8.90;;;2.00;;
4909;SDS011;2470;49.868;8.660;2023-11-19T14:36:45;6.47;;;1.95;;
4909;SDS011;2470;49.868;8.660;2023-11-19T14:39:11;3.10;;;1.58;;
4909;SDS011;2470;49.868;8.660;2023-11-19T14:41:36;3.72;;;1.30;;
4909;SDS011;2470;49.868;8.660;2023-11-19T14:44:02;5.85;;;2.33;;
4909;SDS011;2470;49.868;8.660;2023-11-19T14:46:28;12.02;;;1.45;;
4909;SDS011;2470;49.868;8.660;2023-11-19T14:48:54;1.58;;;1.30;;
4909;SDS011;2470;49.868;8.660;2023-11-19T14:51:19;5.50;;;2.03;;
4909;SDS011;2470;49.868;8.660;2023-11-19T14:53:45;7.30;;;1.92;;
4909;SDS011;2470;49.868;8.660;2023-11-19T14:56:11;6.07;;;1.83;;
4909;SDS011;2470;49.868;8.660;2023-11-19T14:58:40;5.00;;;1.75;;
4909;SDS011;2470;49.868;8.660;2023-11-19T15:01:05;3.70;;;2.13;;
4909;SDS011;2470;49.868;8.660;2023-11-19T15:03:36;6.70;;;1.90;;
4909;SDS011;2470;49.868;8.660;2023-11-19T15:06:01;6.63;;;1.42;;
4909;SDS011;2470;49.868;8.660;2023-11-19T15:08:27;11.55;;;2.80;;
4909;SDS011;2470;49.868;8.660;2023-11-19T15:10:52;3.35;;;1.70;;
4909;SDS011;2470;49.868;8.660;2023-11-19T15:13:18;9.00;;;1.40;;
4909;SDS011;2470;49.868;8.660;2023-11-19T15:15:43;8.52;;;1.80;;
4909;SDS011;2470;49.868;8.660;2023-11-19T15:18:09;2.53;;;1.40;;
4909;SDS011;2470;49.868;8.660;2023-11-19T15:20:35;10.00;;;1.95;;
4909;SDS011;2470;49.868;8.660;2023-11-19T15:23:01;4.28;;;1.77;;
4909;SDS011;2470;49.868;8.660;2023-11-19T15:25:27;3.22;;;1.40;;
4909;SDS011;2470;49.868;8.660;2023-11-19T15:27:52;5.85;;;1.17;;
4909;SDS011;2470;49.868;8.660;2023-11-19T15:30:18;4.07;;;1.63;;
4909;SDS011;2470;49.868;8.660;2023-11-19T15:32:44;4.17;;;1.63;;
4909;SDS011;2470;49.868;8.660;2023-11-19T15:35:09;4.83;;;1.40;;
4909;SDS011;2470;49.868;8.660;2023-11-19T15:37:35;5.03;;;1.60;;
4909;SDS011;2470;49.868;8.660;2023-11-19T15:40:03;2.90;;;1.40;;
4909;SDS011;2470;49.868;8.660;2023-11-19T15:42:31;12.30;;;1.63;;
4909;SDS011;2470;49.868;8.660;2023-11-19T15:44:56;8.70;;;1.77;;